Time;durP1;ratioP1;P1;durP2;ratioP2;P2;SDS_P1;SDS_P2;PMS_P1;PMS_P2;Temp;Humidity;BMP_temperature;BMP_pressure;BME280_temperature;BME280_humidity;BME280_pressure;Samples;Min_cycle;Max_cycle;Signal;HPM_P1;HPM_P2
2022/11/08 00:01:40;;;;;;;3.53;1.40;;;15.30;98.60;;;;;;5091630;28;20137;-72
2022/11/08 00:04:09;;;;;;;4.93;1.27;;;15.20;98.60;;;;;;5073460;28;20472;-71
2022/11/08 00:14:49;;;;;;;15.07;3.45;;;15.20;98.60;;;;;;5091716;28;20542;-73
2022/11/08 00:17:16;;;;;;;8.65;1.90;;;15.30;98.60;;;;;;5091131;28;20078;-73
2022/11/08 00:19:43;;;;;;;7.90;1.80;;;15.30;98.60;;;;;;5073213;28;20020;-71
2022/11/08 00:22:12;;;;;;;8.55;1.95;;;15.40;98.60;;;;;;5091112;28;20449;-73
2022/11/08 00:24:38;;;;;;;3.05;1.38;;;15.30;98.60;;;;;;5091060;28;20571;-73
2022/11/08 00:27:06;;;;;;;5.55;1.60;;;15.30;98.60;;;;;;5073112;28;20063;-73
2022/11/08 00:29:35;;;;;;;5.57;1.25;;;15.30;98.60;;;;;;5091458;28;20016;-73
2022/11/08 00:32:03;;;;;;;5.47;1.35;;;15.20;98.90;;;;;;5073107;28;20414;-72
2022/11/08 00:34:28;;;;;;;7.50;1.48;;;15.20;98.70;;;;;;5091121;28;20028;-72
2022/11/08 00:36:54;;;;;;;6.25;1.30;;;15.20;98.70;;;;;;5090461;28;20494;-74
2022/11/08 00:39:20;;;;;;;7.55;1.70;;;15.10;98.60;;;;;;5090786;28;20032;-72
2022/11/08 00:41:45;;;;;;;6.15;1.25;;;15.10;98.70;;;;;;5091309;28;20078;-72
2022/11/08 00:44:11;;;;;;;7.40;1.30;;;15.10;98.70;;;;;;5090937;28;20051;-71
2022/11/08 00:46:37;;;;;;;4.15;1.10;;;15.10;98.70;;;;;;5072969;28;20070;-73
2022/11/08 00:49:04;;;;;;;6.63;1.25;;;15.10;98.60;;;;;;5072708;28;20456;-73
2022/11/08 00:51:30;;;;;;;4.60;1.33;;;15.00;98.80;;;;;;5090855;28;20032;-74
2022/11/08 00:53:56;;;;;;;10.50;1.58;;;15.00;98.60;;;;;;5091235;28;20031;-72
2022/11/08 00:56:22;;;;;;;8.32;1.90;;;15.00;98.80;;;;;;5090798;28;20107;-74
2022/11/08 00:58:48;;;;;;;4.53;0.98;;;15.00;98.80;;;;;;5072884;28;20047;-73
2022/11/08 01:01:16;;;;;;;8.13;1.40;;;15.00;98.70;;;;;;5090710;28;20028;-73
2022/11/08 01:03:43;;;;;;;10.82;1.65;;;15.10;98.80;;;;;;5090585;28;20093;-74
2022/11/08 01:06:10;;;;;;;4.85;1.00;;;15.00;98.70;;;;;;5090542;28;20262;-72
2022/11/08 01:08:36;;;;;;;4.72;1.23;;;15.10;98.70;;;;;;5073228;28;20020;-72
2022/11/08 01:11:05;;;;;;;5.57;1.60;;;15.00;98.70;;;;;;5090927;28;20056;-73
2022/11/08 01:13:31;;;;;;;4.80;1.08;;;15.10;98.70;;;;;;5090731;28;20098;-73
2022/11/08 01:15:57;;;;;;;4.10;1.38;;;15.10;98.70;;;;;;5090577;28;20036;-73
2022/11/08 01:18:23;;;;;;;8.88;1.48;;;15.10;98.70;;;;;;5090565;28;20044;-72
2022/11/08 01:20:49;;;;;;;4.85;1.70;;;15.10;98.70;;;;;;5090885;28;20320;-72
2022/11/08 01:23:17;;;;;;;6.53;1.13;;;15.00;98.60;;;;;;5090541;28;20060;-74
2022/11/08 01:25:45;;;;;;;5.70;0.90;;;15.00;98.70;;;;;;5090542;28;20182;-73
2022/11/08 01:28:11;;;;;;;5.63;1.45;;;15.00;98.70;;;;;;5090321;28;20031;-73
2022/11/08 01:30:39;;;;;;;6.95;1.30;;;15.00;98.70;;;;;;5072788;28;20407;-73
2022/11/08 01:33:05;;;;;;;6.80;1.60;;;15.00;98.80;;;;;;5090454;28;20024;-72
2022/11/08 01:35:31;;;;;;;3.08;1.17;;;14.90;98.70;;;;;;5090760;28;20400;-74
2022/11/08 01:37:58;;;;;;;5.18;1.20;;;14.90;98.70;;;;;;5072880;28;20109;-73
2022/11/08 01:40:24;;;;;;;6.88;1.55;;;14.90;98.80;;;;;;5072520;28;20111;-74
2022/11/08 01:42:50;;;;;;;7.10;1.58;;;14.90;98.80;;;;;;5090282;28;20036;-73
2022/11/08 01:45:54;;;;;;;9.52;1.20;;;14.80;98.80;;;;;;5090408;28;20024;-74
2022/11/08 01:48:20;;;;;;;7.78;1.50;;;14.80;98.90;;;;;;5090118;28;20124;-73
2022/11/08 01:50:46;;;;;;;4.60;1.40;;;14.80;98.90;;;;;;5093619;28;20501;-72
2022/11/08 01:53:12;;;;;;;3.60;1.33;;;14.70;98.90;;;;;;5093839;28;20028;-74
2022/11/08 01:55:38;;;;;;;8.70;1.50;;;14.70;98.90;;;;;;5093822;28;20074;-72
2022/11/08 01:58:17;;;;;;;17.58;1.88;;;14.70;99.00;;;;;;5093856;28;20040;-73
2022/11/08 02:00:43;;;;;;;7.80;1.40;;;14.70;99.00;;;;;;5094025;28;20024;-72
2022/11/08 02:03:12;;;;;;;6.03;1.42;;;14.70;99.10;;;;;;5093636;28;20038;-73
2022/11/08 02:05:39;;;;;;;7.28;1.77;;;14.60;99.20;;;;;;5094044;28;20023;-73
2022/11/08 02:08:30;;;;;;;4.68;1.33;;;14.50;99.20;;;;;;5093501;28;20085;-74
2022/11/08 02:10:56;;;;;;;4.53;1.20;;;14.50;99.20;;;;;;5075727;28;20429;-73
2022/11/08 02:13:28;;;;;;;7.47;1.55;;;14.50;99.20;;;;;;5075735;28;20038;-74
2022/11/08 02:15:54;;;;;;;7.15;1.70;;;14.40;99.30;;;;;;5075490;28;20093;-73
2022/11/08 02:18:23;;;;;;;8.13;1.42;;;14.40;99.40;;;;;;5093241;28;20512;-74
2022/11/08 02:21:09;;;;;;;4.85;1.48;;;14.30;99.10;;;;;;5076172;28;20541;-74
2022/11/08 02:23:43;;;;;;;8.77;1.98;;;14.30;99.30;;;;;;5093389;28;20039;-74
2022/11/08 02:26:09;;;;;;;6.68;1.25;;;14.30;99.40;;;;;;5093148;28;20024;-75
2022/11/08 02:28:39;;;;;;;7.60;1.33;;;14.30;99.50;;;;;;5093104;28;20511;-72
2022/11/08 02:31:08;;;;;;;8.57;1.83;;;14.30;99.40;;;;;;5093101;28;20051;-72
2022/11/08 02:33:34;;;;;;;5.43;1.25;;;14.30;99.40;;;;;;5093225;28;20020;-73
2022/11/08 02:36:02;;;;;;;7.60;1.35;;;14.30;99.50;;;;;;5074781;28;20035;-73
2022/11/08 02:38:28;;;;;;;6.00;1.58;;;14.20;99.40;;;;;;5093475;28;20027;-73
2022/11/08 02:40:55;;;;;;;9.75;1.48;;;14.30;99.50;;;;;;5092982;28;20028;-74
2022/11/08 02:43:23;;;;;;;8.13;1.60;;;14.20;99.50;;;;;;5092820;28;20109;-73
2022/11/08 02:45:49;;;;;;;7.72;1.67;;;14.10;99.60;;;;;;5092909;28;20468;-74
2022/11/08 02:48:15;;;;;;;6.50;1.70;;;14.10;99.60;;;;;;5074667;28;20051;-73
2022/11/08 02:50:41;;;;;;;7.47;1.52;;;14.10;99.50;;;;;;5093383;28;20066;-72
2022/11/08 02:53:06;;;;;;;8.32;1.70;;;14.10;99.50;;;;;;5092803;28;20411;-75
2022/11/08 02:55:33;;;;;;;5.50;1.30;;;14.10;99.60;;;;;;5092622;28;20370;-73
2022/11/08 02:58:00;;;;;;;10.55;1.60;;;14.10;99.60;;;;;;5092595;28;20032;-73
2022/11/08 03:00:26;;;;;;;6.30;1.45;;;14.10;99.60;;;;;;5092083;28;20028;-73
2022/11/08 03:02:55;;;;;;;7.78;1.40;;;14.00;99.70;;;;;;5093027;28;20085;-73
2022/11/08 03:05:22;;;;;;;8.90;2.05;;;14.00;99.80;;;;;;5092406;28;20036;-73
2022/11/08 03:07:48;;;;;;;6.40;1.83;;;14.00;99.90;;;;;;5092535;28;20035;-73
2022/11/08 03:10:14;;;;;;;9.48;2.22;;;13.90;99.90;;;;;;5092148;28;20024;-74
2022/11/08 03:12:41;;;;;;;7.43;1.73;;;14.00;99.90;;;;;;5092345;28;20061;-73
2022/11/08 03:15:09;;;;;;;4.95;1.67;;;13.90;99.90;;;;;;5074350;28;20445;-73
2022/11/08 03:17:35;;;;;;;7.07;1.52;;;13.90;99.90;;;;;;5092750;28;20438;-74
2022/11/08 03:20:01;;;;;;;6.65;1.60;;;13.90;99.90;;;;;;5074549;28;20021;-73
2022/11/08 03:22:26;;;;;;;6.53;1.50;;;13.90;99.90;;;;;;5092432;28;20028;-75
2022/11/08 03:24:52;;;;;;;8.25;1.55;;;13.90;99.90;;;;;;5091983;28;20021;-74
2022/11/08 03:27:18;;;;;;;11.73;1.88;;;13.90;99.90;;;;;;5092108;28;20150;-75
2022/11/08 03:29:48;;;;;;;7.25;2.00;;;13.80;99.90;;;;;;5074999;28;20050;-75
2022/11/08 03:32:14;;;;;;;8.63;1.70;;;13.90;99.90;;;;;;5074059;28;20042;-73
2022/11/08 03:34:41;;;;;;;8.18;2.10;;;13.80;99.90;;;;;;5091703;28;20461;-74
2022/11/08 03:37:09;;;;;;;6.45;1.65;;;13.80;99.90;;;;;;5092082;28;20035;-73
2022/11/08 03:39:35;;;;;;;4.93;1.40;;;13.80;99.90;;;;;;5074102;28;20031;-74
2022/11/08 03:42:03;;;;;;;9.18;1.88;;;13.80;99.90;;;;;;5091659;28;20051;-73
2022/11/08 03:44:29;;;;;;;6.38;1.52;;;13.70;99.90;;;;;;5092329;28;20025;-73
2022/11/08 03:46:55;;;;;;;6.78;1.45;;;13.70;99.90;;;;;;5073872;28;20066;-73
2022/11/08 03:49:21;;;;;;;5.70;1.17;;;13.80;99.90;;;;;;5091759;28;20126;-74
2022/11/08 03:51:46;;;;;;;6.82;1.55;;;13.70;99.90;;;;;;5073797;28;20450;-73
2022/11/08 03:54:12;;;;;;;7.03;1.50;;;13.70;99.90;;;;;;5091505;28;20356;-73
2022/11/08 03:56:38;;;;;;;8.65;1.77;;;13.70;99.90;;;;;;5092104;28;20477;-73
2022/11/08 03:59:04;;;;;;;6.15;1.45;;;13.70;99.90;;;;;;5091603;28;20457;-74
2022/11/08 04:01:30;;;;;;;11.73;2.53;;;13.70;99.90;;;;;;5073500;28;20063;-74
2022/11/08 04:03:55;;;;;;;3.15;1.42;;;13.70;99.90;;;;;;5091366;28;20047;-72
2022/11/08 04:06:21;;;;;;;11.20;2.42;;;13.70;99.90;;;;;;5090981;28;20058;-73
2022/11/08 04:08:46;;;;;;;6.78;1.65;;;13.70;99.90;;;;;;5091686;28;20024;-74
2022/11/08 04:16:41;;;;;;;12.50;5.03;;;13.70;99.90;;;;;;5091254;28;20046;-73
2022/11/08 04:22:01;;;;;;;4.63;1.17;;;13.60;99.90;;;;;;5035887;28;20061;-74
2022/11/08 04:24:27;;;;;;;6.00;1.70;;;13.60;99.90;;;;;;5091169;28;20469;-74
2022/11/08 04:26:53;;;;;;;6.60;1.35;;;13.60;99.90;;;;;;5091667;28;20453;-74
2022/11/08 04:29:19;;;;;;;8.68;2.03;;;13.60;99.90;;;;;;5073264;28;20032;-74
2022/11/08 04:31:44;;;;;;;7.40;1.58;;;13.60;99.90;;;;;;5090959;28;20209;-74
2022/11/08 04:34:10;;;;;;;5.50;1.40;;;13.60;99.90;;;;;;5090930;28;20027;-74
2022/11/08 04:36:36;;;;;;;6.82;1.60;;;13.60;99.90;;;;;;5073100;28;20450;-73
2022/11/08 04:39:01;;;;;;;10.68;2.17;;;13.60;99.90;;;;;;5073051;28;20016;-72
2022/11/08 04:41:27;;;;;;;10.07;1.50;;;13.60;99.90;;;;;;5091295;28;20089;-74
2022/11/08 04:43:55;;;;;;;7.85;1.38;;;13.50;99.90;;;;;;5090923;28;20394;-73
2022/11/08 04:46:23;;;;;;;11.50;1.85;;;13.60;99.90;;;;;;5073072;28;20152;-77
2022/11/08 04:48:51;;;;;;;9.25;1.33;;;13.60;99.90;;;;;;5072902;28;20024;-73
2022/11/08 04:51:27;;;;;;;4.75;1.27;;;13.50;99.90;;;;;;5072912;28;20472;-75
2022/11/08 04:53:58;;;;;;;5.72;1.45;;;13.60;99.90;;;;;;5073327;28;20024;-74
2022/11/08 04:56:26;;;;;;;4.88;1.50;;;13.60;99.90;;;;;;5091175;28;20036;-75
2022/11/08 04:58:55;;;;;;;4.30;1.67;;;13.60;99.90;;;;;;5072919;28;20311;-74
2022/11/08 05:01:29;;;;;;;9.02;1.75;;;13.50;99.90;;;;;;5090983;28;20506;-74
2022/11/08 05:03:55;;;;;;;3.17;1.23;;;13.60;99.90;;;;;;5090560;28;20025;-73
2022/11/08 05:06:23;;;;;;;7.85;2.05;;;13.60;99.90;;;;;;5090558;28;20024;-74
2022/11/08 05:08:49;;;;;;;5.32;1.48;;;13.50;99.90;;;;;;5091112;28;20653;-76
2022/11/08 05:11:18;;;;;;;5.65;1.33;;;13.60;99.90;;;;;;5090605;28;20473;-73
2022/11/08 05:13:44;;;;;;;8.13;1.90;;;13.60;99.90;;;;;;5090171;28;20063;-74
2022/11/08 05:16:16;;;;;;;5.00;1.30;;;13.60;99.90;;;;;;5090759;28;20039;-75
2022/11/08 05:18:42;;;;;;;5.72;1.25;;;13.60;99.90;;;;;;5090576;28;20028;-74
2022/11/08 05:23:55;;;;;;;7.00;2.15;;;13.60;99.90;;;;;;5092568;28;20093;-74
2022/11/08 05:26:21;;;;;;;8.18;1.58;;;13.60;99.90;;;;;;5094392;28;20036;-73
2022/11/08 05:28:47;;;;;;;8.75;1.80;;;13.60;99.90;;;;;;5076464;28;20042;-73
2022/11/08 05:31:13;;;;;;;6.15;2.08;;;13.60;99.90;;;;;;5094581;28;20189;-75
2022/11/08 05:33:39;;;;;;;5.55;1.58;;;13.60;99.90;;;;;;5076299;28;20090;-74
2022/11/08 05:36:07;;;;;;;4.85;1.50;;;13.60;99.90;;;;;;5093879;28;20116;-74
2022/11/08 05:38:33;;;;;;;7.45;1.58;;;13.60;99.90;;;;;;5094485;28;20026;-74
2022/11/08 05:41:09;;;;;;;5.60;1.40;;;13.60;99.90;;;;;;5075986;28;20028;-74
2022/11/08 05:43:35;;;;;;;4.72;1.40;;;13.60;99.90;;;;;;5094012;28;20039;-74
2022/11/08 05:46:01;;;;;;;5.28;1.40;;;13.60;99.90;;;;;;5076255;28;20047;-74
2022/11/08 05:48:27;;;;;;;5.30;1.85;;;13.60;99.90;;;;;;5093970;28;20020;-74
2022/11/08 05:50:53;;;;;;;3.72;1.63;;;13.60;99.90;;;;;;5076287;28;20024;-74
2022/11/08 05:53:19;;;;;;;5.25;1.70;;;13.50;99.90;;;;;;5094161;28;20047;-75
2022/11/08 05:55:45;;;;;;;3.55;1.55;;;13.60;99.90;;;;;;5075782;28;20035;-74
2022/11/08 05:58:11;;;;;;;6.30;1.55;;;13.50;99.90;;;;;;5093729;28;20042;-74
2022/11/08 06:00:36;;;;;;;5.65;1.50;;;13.50;99.90;;;;;;5093431;28;20028;-73
2022/11/08 06:03:03;;;;;;;7.57;1.80;;;13.50;99.90;;;;;;5093503;28;20512;-74
2022/11/08 06:05:29;;;;;;;10.63;2.33;;;13.50;99.90;;;;;;5094026;28;20026;-75
2022/11/08 06:07:54;;;;;;;7.53;1.77;;;13.40;99.90;;;;;;5093798;28;20115;-74
2022/11/08 06:10:20;;;;;;;7.90;1.60;;;13.40;99.90;;;;;;5075321;28;20144;-75
2022/11/08 06:12:46;;;;;;;7.22;1.50;;;13.40;99.90;;;;;;5075728;28;20081;-74
2022/11/08 06:15:12;;;;;;;6.50;2.17;;;13.40;99.90;;;;;;5075245;28;20039;-74
2022/11/08 06:17:38;;;;;;;7.45;1.88;;;13.40;99.90;;;;;;5093711;28;20398;-74
2022/11/08 06:20:06;;;;;;;9.48;2.10;;;13.30;99.90;;;;;;5093075;28;20085;-73
2022/11/08 06:22:33;;;;;;;9.38;2.47;;;13.30;99.90;;;;;;5093046;28;20112;-74
2022/11/08 06:24:59;;;;;;;7.47;1.90;;;13.30;99.90;;;;;;5093738;28;20365;-73
2022/11/08 06:27:25;;;;;;;7.28;2.13;;;13.30;99.90;;;;;;5093074;28;20035;-74
2022/11/08 06:29:51;;;;;;;9.43;2.17;;;13.30;99.90;;;;;;5093593;28;20024;-75
2022/11/08 06:32:17;;;;;;;10.57;2.28;;;13.30;99.90;;;;;;5093033;28;20545;-75
2022/11/08 06:34:44;;;;;;;8.85;2.40;;;13.30;99.90;;;;;;5073767;28;20085;-73
2022/11/08 06:37:12;;;;;;;7.65;2.22;;;13.30;99.90;;;;;;5092859;28;20320;-73
2022/11/08 06:39:39;;;;;;;9.85;2.65;;;13.20;99.90;;;;;;5075439;28;20024;-77
2022/11/08 06:42:04;;;;;;;7.72;2.10;;;13.20;99.90;;;;;;5092848;28;20052;-74
2022/11/08 06:44:30;;;;;;;5.93;2.17;;;13.20;99.90;;;;;;5075570;28;20072;-74
2022/11/08 06:46:56;;;;;;;5.65;1.83;;;13.20;99.90;;;;;;5093040;28;20032;-74
2022/11/08 06:49:23;;;;;;;9.27;2.15;;;13.30;99.90;;;;;;5092732;28;20047;-73
2022/11/08 06:51:49;;;;;;;8.35;2.00;;;13.20;99.90;;;;;;5092632;28;20032;-75
2022/11/08 06:54:15;;;;;;;5.63;2.13;;;13.20;99.90;;;;;;5093547;28;20024;-75
2022/11/08 06:56:41;;;;;;;8.00;2.15;;;13.20;99.90;;;;;;5093523;28;20032;-74
2022/11/08 06:59:08;;;;;;;19.25;5.63;;;13.20;99.90;;;;;;5092757;28;20032;-74
2022/11/08 07:01:33;;;;;;;12.23;3.78;;;13.20;99.90;;;;;;5092668;28;20534;-73
2022/11/08 07:03:59;;;;;;;8.77;2.53;;;13.30;99.90;;;;;;5092250;28;20115;-74
2022/11/08 07:06:25;;;;;;;9.20;4.60;;;13.30;99.90;;;;;;5092357;28;20055;-75
2022/11/08 07:08:51;;;;;;;10.32;3.17;;;13.30;99.90;;;;;;5093563;28;20068;-76
2022/11/08 07:11:16;;;;;;;6.70;2.50;;;13.30;99.90;;;;;;5094209;28;20028;-76
2022/11/08 07:13:42;;;;;;;9.05;3.20;;;13.30;99.90;;;;;;5092622;28;20021;-78
2022/11/08 07:16:08;;;;;;;8.68;3.47;;;13.30;99.90;;;;;;5092583;28;20059;-77
2022/11/08 07:18:33;;;;;;;8.43;2.88;;;13.30;99.90;;;;;;5092337;28;20429;-77
2022/11/08 07:21:00;;;;;;;7.93;2.38;;;13.30;99.90;;;;;;5092803;28;20054;-75
2022/11/08 07:23:27;;;;;;;10.68;1.98;;;13.30;99.90;;;;;;5096053;28;20141;-77
2022/11/08 07:25:52;;;;;;;10.25;2.85;;;13.40;99.90;;;;;;5092159;28;20043;-76
2022/11/08 07:28:19;;;;;;;5.70;2.10;;;13.30;99.90;;;;;;5092210;28;20040;-75
2022/11/08 07:30:45;;;;;;;8.50;2.88;;;13.30;99.90;;;;;;5092103;28;20040;-75
2022/11/08 07:33:12;;;;;;;4.78;1.58;;;13.40;99.90;;;;;;5074395;28;20396;-74
2022/11/08 07:35:38;;;;;;;9.05;2.20;;;13.40;99.90;;;;;;5074942;28;20028;-76
2022/11/08 07:38:04;;;;;;;9.52;2.47;;;13.40;99.90;;;;;;5073934;28;20478;-77
2022/11/08 07:40:30;;;;;;;7.25;2.03;;;13.40;99.90;;;;;;5074042;28;20044;-77
2022/11/08 07:42:59;;;;;;;8.95;2.30;;;13.40;99.90;;;;;;5073933;28;20032;-75
2022/11/08 07:45:25;;;;;;;7.88;2.20;;;13.40;99.90;;;;;;5074075;28;20043;-77
2022/11/08 07:48:02;;;;;;;10.63;3.05;;;13.40;99.90;;;;;;5092571;28;20079;-76
2022/11/08 07:50:29;;;;;;;5.68;2.75;;;13.40;99.90;;;;;;5075557;28;20036;-77
2022/11/08 07:52:55;;;;;;;7.53;3.05;;;13.50;99.90;;;;;;5091862;28;20032;-76
2022/11/08 07:55:21;;;;;;;9.20;2.67;;;13.50;99.90;;;;;;5074228;28;20036;-75
2022/11/08 07:57:47;;;;;;;10.75;2.53;;;13.50;99.90;;;;;;5074583;28;20055;-77
2022/11/08 08:00:13;;;;;;;9.27;2.45;;;13.50;99.90;;;;;;5092343;28;20500;-75
2022/11/08 08:02:39;;;;;;;5.80;2.20;;;13.40;99.90;;;;;;5092534;28;20039;-76
2022/11/08 08:05:06;;;;;;;10.40;2.55;;;13.50;99.90;;;;;;5091778;28;20024;-77
2022/11/08 08:07:33;;;;;;;5.97;2.53;;;13.50;99.90;;;;;;5073777;28;20496;-77
2022/11/08 08:09:59;;;;;;;11.85;4.93;;;13.60;99.90;;;;;;5091964;28;20028;-78
2022/11/08 08:12:25;;;;;;;5.95;2.63;;;13.70;99.90;;;;;;5091884;28;20107;-77
2022/11/08 08:14:50;;;;;;;9.02;2.83;;;13.70;99.90;;;;;;5074114;28;20085;-77
2022/11/08 08:17:17;;;;;;;8.13;2.78;;;13.80;99.90;;;;;;5092406;28;20044;-77
2022/11/08 08:19:43;;;;;;;9.98;2.63;;;13.90;99.90;;;;;;5073850;28;20028;-76
2022/11/08 08:22:09;;;;;;;7.72;2.30;;;14.00;99.90;;;;;;5091460;28;20032;-72
2022/11/08 08:24:35;;;;;;;9.65;2.90;;;14.10;99.90;;;;;;5091066;28;20099;-76
2022/11/08 08:27:00;;;;;;;8.23;2.40;;;14.20;99.90;;;;;;5091393;28;20091;-72
2022/11/08 08:29:26;;;;;;;5.68;2.10;;;14.30;99.90;;;;;;5091533;28;20445;-72
2022/11/08 08:31:52;;;;;;;8.18;2.10;;;14.40;99.90;;;;;;5073209;28;20036;-76
2022/11/08 08:34:18;;;;;;;8.75;1.88;;;14.40;99.80;;;;;;5091065;28;20581;-76
2022/11/08 08:36:44;;;;;;;8.02;2.58;;;14.50;99.80;;;;;;5091149;28;20032;-74
2022/11/08 08:39:09;;;;;;;8.82;3.33;;;14.50;99.70;;;;;;5091169;28;20035;-76
2022/11/08 08:41:35;;;;;;;6.28;1.85;;;14.60;99.50;;;;;;5070384;28;20366;-76
2022/11/08 08:44:01;;;;;;;4.60;2.03;;;14.60;99.40;;;;;;5070981;28;20650;-75
2022/11/08 08:46:27;;;;;;;8.25;1.67;;;14.70;99.30;;;;;;5070889;28;20082;-75
2022/11/08 08:48:53;;;;;;;6.47;1.67;;;14.70;99.30;;;;;;5070661;28;20029;-74
2022/11/08 08:51:18;;;;;;;5.65;1.10;;;14.80;99.20;;;;;;5070736;28;20575;-72
2022/11/08 08:53:44;;;;;;;7.63;1.80;;;14.90;99.20;;;;;;5071388;28;20047;-74
2022/11/08 08:56:10;;;;;;;8.30;2.08;;;14.90;99.10;;;;;;5069793;28;20565;-74
2022/11/08 08:58:36;;;;;;;4.55;1.42;;;14.90;99.10;;;;;;5070743;28;20025;-75
2022/11/08 09:01:04;;;;;;;8.25;1.75;;;15.00;99.00;;;;;;5074046;28;20052;-73
2022/11/08 09:03:30;;;;;;;;;;;15.00;98.90;;;;;;5075208;28;20043;-75
2022/11/08 09:05:57;;;;;;;11.55;1.77;;;15.00;98.90;;;;;;5075184;28;19904;-76
2022/11/08 09:08:23;;;;;;;6.68;2.17;;;15.10;98.80;;;;;;5073540;28;20414;-74
2022/11/08 09:10:57;;;;;;;4.78;1.40;;;15.00;98.70;;;;;;5074925;28;20340;-74
2022/11/08 09:13:25;;;;;;;4.97;1.42;;;15.10;98.70;;;;;;5074582;28;20029;-76
2022/11/08 09:15:51;;;;;;;4.15;1.42;;;15.20;98.60;;;;;;5073528;28;20039;-74
2022/11/08 09:18:17;;;;;;;6.28;1.48;;;15.20;98.50;;;;;;5073387;28;20036;-74
2022/11/08 09:20:43;;;;;;;4.30;1.48;;;15.30;98.50;;;;;;5058108;28;20348;-76
2022/11/08 09:23:11;;;;;;;3.50;1.23;;;15.30;98.40;;;;;;5054498;28;20374;-75
2022/11/08 09:25:36;;;;;;;7.05;1.48;;;15.30;98.40;;;;;;5054824;28;20029;-74
2022/11/08 09:28:03;;;;;;;7.65;1.50;;;15.30;98.20;;;;;;5053473;28;20047;-74
2022/11/08 09:30:28;;;;;;;11.55;2.53;;;15.30;98.00;;;;;;5054251;28;20033;-73
2022/11/08 09:32:55;;;;;;;5.95;1.85;;;15.40;98.00;;;;;;5054616;28;20107;-73
2022/11/08 09:35:22;;;;;;;6.70;1.67;;;15.40;98.00;;;;;;5054085;28;20049;-75
2022/11/08 09:37:47;;;;;;;7.00;1.70;;;15.50;98.00;;;;;;5054325;28;20112;-73
2022/11/08 09:40:20;;;;;;;3.80;1.40;;;15.50;97.80;;;;;;5053009;28;20116;-74
2022/11/08 09:42:55;;;;;;;2.58;1.25;;;15.60;97.80;;;;;;5069563;28;20140;-75
2022/11/08 09:45:44;;;;;;;5.10;1.30;;;15.60;97.50;;;;;;5054366;28;20025;-74
2022/11/08 09:48:21;;;;;;;4.43;1.38;;;15.60;97.40;;;;;;5054017;28;20014;-74
2022/11/08 09:50:50;;;;;;;3.42;1.25;;;15.70;97.40;;;;;;5054682;28;20017;-74
2022/11/08 09:53:46;;;;;;;4.97;1.25;;;15.80;97.30;;;;;;5054135;28;20033;-75
2022/11/08 09:56:22;;;;;;;5.00;1.42;;;15.90;97.00;;;;;;5053909;28;20048;-76
2022/11/08 09:59:03;;;;;;;13.00;1.40;;;16.00;96.90;;;;;;5053891;28;20497;-74
2022/11/08 10:01:31;;;;;;;5.53;1.08;;;16.10;96.70;;;;;;5053995;28;20048;-73
2022/11/08 10:04:04;;;;;;;11.88;2.97;;;16.20;96.30;;;;;;5054186;28;20060;-75
2022/11/08 10:07:04;;;;;;;9.35;2.35;;;16.20;96.20;;;;;;5053840;28;20351;-74
2022/11/08 10:09:44;;;;;;;2.47;0.93;;;16.30;96.00;;;;;;5052819;28;20040;-76
2022/11/08 10:12:19;;;;;;;5.45;1.27;;;16.50;96.00;;;;;;5053263;28;20036;-76
2022/11/08 10:15:03;;;;;;;7.47;1.50;;;16.50;95.60;;;;;;5052892;28;20044;-75
2022/11/08 10:17:57;;;;;;;5.30;1.17;;;16.80;95.80;;;;;;5053966;28;20410;-76
2022/11/08 10:20:35;;;;;;;2.45;0.88;;;17.60;95.50;;;;;;5053695;28;20064;-74
2022/11/08 10:23:25;;;;;;;2.45;0.85;;;18.80;94.70;;;;;;5053611;28;20509;-76
2022/11/08 10:25:57;;;;;;;5.90;1.35;;;19.60;93.40;;;;;;5053404;28;20154;-75
2022/11/08 10:28:39;;;;;;;4.43;1.10;;;20.20;92.50;;;;;;5053213;28;20044;-75
2022/11/08 10:31:05;;;;;;;5.03;1.30;;;20.80;91.60;;;;;;5053091;28;20447;-74
2022/11/08 10:33:42;;;;;;;5.38;1.40;;;21.20;90.90;;;;;;5068806;28;20359;-76
2022/11/08 10:36:19;;;;;;;4.45;0.95;;;21.50;90.60;;;;;;5052937;28;20033;-77
2022/11/08 10:39:03;;;;;;;6.20;0.95;;;21.60;89.20;;;;;;5055308;28;20017;-75
2022/11/08 10:41:32;;;;;;;4.20;1.10;;;21.70;88.30;;;;;;5052094;28;20107;-76
2022/11/08 10:44:05;;;;;;;2.83;1.00;;;22.20;89.10;;;;;;5051844;28;20025;-75
2022/11/08 10:46:34;;;;;;;3.97;1.10;;;22.20;87.00;;;;;;5052966;28;20056;-76
2022/11/08 10:49:13;;;;;;;10.70;3.40;;;22.40;85.50;;;;;;5052839;28;20055;-77
2022/11/08 10:51:38;;;;;;;6.55;1.40;;;22.70;85.40;;;;;;5053013;28;20120;-74
2022/11/08 10:54:04;;;;;;;8.13;0.98;;;22.90;84.50;;;;;;5051717;28;20433;-76
2022/11/08 10:56:30;;;;;;;2.88;0.98;;;22.70;83.70;;;;;;5052019;28;20017;-75
2022/11/08 10:58:56;;;;;;;3.50;1.92;;;23.00;85.00;;;;;;5052716;28;20040;-75
2022/11/08 11:01:24;;;;;;;4.82;1.65;;;23.10;84.40;;;;;;5052677;28;20433;-76
2022/11/08 11:03:51;;;;;;;2.60;1.20;;;23.00;83.60;;;;;;5052452;28;20036;-76
2022/11/08 11:06:29;;;;;;;4.63;1.10;;;22.90;82.90;;;;;;5052680;28;20028;-76
2022/11/08 11:08:56;;;;;;;;;;;22.60;82.90;;;;;;5068866;28;20409;-76
2022/11/08 11:11:31;;;;;;;3.80;1.08;;;22.30;82.50;;;;;;5051661;28;20139;-74
2022/11/08 11:14:10;;;;;;;8.10;3.13;;;22.00;83.80;;;;;;5052313;28;20031;-77
2022/11/08 11:16:36;;;;;;;3.20;1.42;;;21.70;83.80;;;;;;5051134;28;20033;-75
2022/11/08 11:19:04;;;;;;;1.98;0.77;;;21.40;84.60;;;;;;5052323;28;20029;-76
2022/11/08 11:21:35;;;;;;;6.40;1.13;;;21.20;84.70;;;;;;5067348;28;20116;-75
2022/11/08 11:24:08;;;;;;;2.60;0.98;;;20.90;84.50;;;;;;5052222;28;20032;-73
2022/11/08 11:26:43;;;;;;;4.90;0.88;;;21.00;85.30;;;;;;5052758;28;20357;-73
2022/11/08 11:29:08;;;;;;;4.25;1.10;;;21.00;85.30;;;;;;5051079;28;20043;-73
2022/11/08 11:31:34;;;;;;;2.80;1.27;;;20.80;85.10;;;;;;5052138;28;20378;-73
2022/11/08 11:34:15;;;;;;;6.72;1.05;;;20.50;85.30;;;;;;5051805;28;20359;-73
2022/11/08 11:36:49;;;;;;;4.63;0.85;;;20.40;86.30;;;;;;5051855;28;20031;-73
2022/11/08 11:39:27;;;;;;;4.72;1.10;;;20.10;86.40;;;;;;5051044;28;20457;-72
2022/11/08 11:42:18;;;;;;;4.40;1.50;;;20.00;86.70;;;;;;5060628;28;20059;-73
2022/11/08 11:45:05;;;;;;;2.25;0.93;;;19.70;86.90;;;;;;5072085;28;20403;-72
2022/11/08 11:47:53;;;;;;;2.47;0.83;;;19.50;87.30;;;;;;5070689;28;20036;-76
2022/11/08 11:50:26;;;;;;;5.78;1.10;;;19.30;87.50;;;;;;5070325;28;20040;-73
2022/11/08 11:52:54;;;;;;;3.85;0.70;;;19.10;87.70;;;;;;5071614;28;20047;-75
2022/11/08 11:55:33;;;;;;;4.30;1.17;;;19.00;88.50;;;;;;5071287;28;20033;-73
2022/11/08 11:58:17;;;;;;;5.45;0.90;;;19.00;88.90;;;;;;5071347;28;20028;-72
2022/11/08 12:00:50;;;;;;;2.75;0.85;;;18.90;88.80;;;;;;5071364;28;20078;-73
2022/11/08 12:03:21;;;;;;;2.03;0.90;;;18.80;88.80;;;;;;5071278;28;20028;-76
2022/11/08 12:06:17;;;;;;;6.13;1.10;;;18.70;89.00;;;;;;5071491;28;20418;-75
2022/11/08 12:09:01;;;;;;;1.40;0.57;;;18.60;89.50;;;;;;5071120;28;20176;-77
2022/11/08 12:11:41;;;;;;;2.70;0.77;;;18.60;90.00;;;;;;5053896;28;20032;-76
2022/11/08 12:14:32;;;;;;;4.40;0.75;;;18.50;89.60;;;;;;5071319;28;20028;-75
2022/11/08 12:17:26;;;;;;;1.38;0.80;;;18.50;90.00;;;;;;5071120;28;20354;-75
2022/11/08 12:20:34;;;;;;;4.28;1.10;;;18.50;89.70;;;;;;5071152;28;20036;-75
2022/11/08 12:23:18;;;;;;;4.25;0.90;;;18.50;90.00;;;;;;5053482;28;20040;-75
2022/11/08 12:26:14;;;;;;;2.55;0.90;;;18.50;89.50;;;;;;5053300;28;20039;-77
2022/11/08 12:29:13;;;;;;;3.92;1.08;;;18.50;89.50;;;;;;5069711;28;20032;-79
2022/11/08 12:32:08;;;;;;;5.68;1.20;;;18.40;89.50;;;;;;5070977;28;20067;-74
2022/11/08 12:34:37;;;;;;;5.75;1.10;;;18.50;88.80;;;;;;5070294;28;20032;-77
2022/11/08 12:37:20;;;;;;;2.72;1.00;;;18.40;88.80;;;;;;5070494;28;20033;-74
2022/11/08 12:40:01;;;;;;;3.33;0.88;;;18.40;88.70;;;;;;5072956;28;20035;-75
2022/11/08 12:42:31;;;;;;;1.27;0.80;;;18.40;88.90;;;;;;5049381;28;20052;-75
2022/11/08 12:45:22;;;;;;;2.17;0.90;;;18.50;88.90;;;;;;5050372;28;20021;-75
2022/11/08 12:48:07;;;;;;;3.00;0.70;;;18.40;87.80;;;;;;5050702;28;20571;-76
2022/11/08 12:50:49;;;;;;;3.05;0.90;;;18.40;88.50;;;;;;5051148;28;20044;-74
2022/11/08 12:54:01;;;;;;;1.95;1.02;;;18.40;88.30;;;;;;5050561;28;20086;-74
2022/11/08 12:56:34;;;;;;;1.35;0.80;;;18.40;88.90;;;;;;5039316;28;20102;-76
2022/11/08 12:59:02;;;;;;;2.00;0.77;;;18.30;88.20;;;;;;5050868;28;20070;-76
2022/11/08 13:01:28;;;;;;;7.43;1.10;;;18.30;87.90;;;;;;5049642;28;20044;-76
2022/11/08 13:04:03;;;;;;;2.45;0.95;;;18.40;87.90;;;;;;5052381;28;20056;-77
2022/11/08 13:06:54;;;;;;;3.10;1.02;;;18.30;87.50;;;;;;5060947;28;20120;-78
2022/11/08 13:09:35;;;;;;;2.63;1.10;;;18.30;87.30;;;;;;5050689;28;20044;-77
2022/11/08 13:12:10;;;;;;;1.95;0.90;;;18.20;87.60;;;;;;5050518;28;20355;-77
2022/11/08 13:14:37;;;;;;;4.03;1.25;;;18.30;87.50;;;;;;5050960;28;20107;-76
2022/11/08 13:17:25;;;;;;;6.97;1.13;;;18.30;87.80;;;;;;5049427;28;20033;-76
2022/11/08 13:19:50;;;;;;;4.70;0.95;;;18.30;87.80;;;;;;5050380;28;20061;-75